createdAt,value
2022-10-16T00:04:00.875Z,13.07
2022-10-16T00:08:50.795Z,13.06
2022-10-16T00:13:41.624Z,13.08
2022-10-16T00:18:31.533Z,13.08
2022-10-16T00:23:23.647Z,13.11
2022-10-16T00:28:13.078Z,13.12
2022-10-16T00:33:02.536Z,13.15
2022-10-16T00:37:51.953Z,13.20
2022-10-16T00:42:43.967Z,13.22
2022-10-16T00:47:35.461Z,13.23
2022-10-16T00:52:25.257Z,13.24
2022-10-16T01:02:07.403Z,13.26
2022-10-16T01:07:03.736Z,13.26
2022-10-16T01:12:00.611Z,13.21
2022-10-16T01:16:52.998Z,13.19
2022-10-16T01:21:46.736Z,13.15
2022-10-16T01:26:46.215Z,13.12
2022-10-16T01:31:44.214Z,13.11
2022-10-16T01:36:39.397Z,13.07
2022-10-16T01:41:31.722Z,13.03
2022-10-16T01:46:22.107Z,13.00
2022-10-16T01:51:15.874Z,12.96
2022-10-16T01:56:07.713Z,12.92
2022-10-16T02:00:58.441Z,12.89
2022-10-16T02:05:49.911Z,12.85
2022-10-16T02:10:42.056Z,12.82
2022-10-16T02:15:31.541Z,12.81
2022-10-16T02:20:22.811Z,12.81
2022-10-16T02:25:14.065Z,12.83
2022-10-16T02:30:11.291Z,12.81
2022-10-16T02:35:02.356Z,12.78
2022-10-16T02:39:51.847Z,12.79
2022-10-16T02:44:41.207Z,12.79
2022-10-16T02:49:33.271Z,12.79
2022-10-16T02:54:22.730Z,12.79
2022-10-16T02:59:12.375Z,12.81
2022-10-16T03:04:01.985Z,12.79
2022-10-16T03:08:53.991Z,12.79
2022-10-16T03:13:43.311Z,12.77
2022-10-16T03:18:32.887Z,12.74
2022-10-16T03:23:22.274Z,12.71
2022-10-16T03:28:14.314Z,12.71
2022-10-16T03:33:03.768Z,12.69
2022-10-16T03:37:53.480Z,12.70
2022-10-16T03:42:43.420Z,12.69
2022-10-16T03:47:35.483Z,12.71
2022-10-16T03:52:24.988Z,12.71
2022-10-16T03:57:14.965Z,12.68
2022-10-16T04:02:04.432Z,12.67
2022-10-16T04:06:56.539Z,12.66
2022-10-16T04:11:46.237Z,12.64
2022-10-16T04:16:35.675Z,12.61
2022-10-16T04:21:25.123Z,12.60
2022-10-16T04:26:17.209Z,12.56
2022-10-16T04:31:07.664Z,12.52
2022-10-16T04:36:00.358Z,12.49
2022-10-16T04:40:49.730Z,12.46
2022-10-16T04:45:41.640Z,12.42
2022-10-16T04:50:30.979Z,12.38
2022-10-16T04:55:29.112Z,12.34
2022-10-16T05:00:18.738Z,12.32
2022-10-16T05:05:11.629Z,12.27
2022-10-16T05:10:01.341Z,12.30
2022-10-16T05:14:50.926Z,12.31
2022-10-16T05:19:40.747Z,12.33
2022-10-16T05:24:33.245Z,12.32
2022-10-16T05:29:23.668Z,12.39
2022-10-16T05:34:13.617Z,12.37
2022-10-16T05:39:03.988Z,12.44
2022-10-16T05:43:56.893Z,12.44
2022-10-16T05:48:46.876Z,12.47
2022-10-16T05:53:38.046Z,12.46
2022-10-16T05:58:28.581Z,12.50
2022-10-16T06:03:20.924Z,12.51
2022-10-16T06:08:10.323Z,12.56
2022-10-16T06:13:00.118Z,12.55
2022-10-16T06:17:49.989Z,12.55
2022-10-16T06:22:43.949Z,12.61
2022-10-16T06:27:33.829Z,12.65
2022-10-16T06:32:23.951Z,12.64
2022-10-16T06:37:16.736Z,12.65
2022-10-16T06:42:10.380Z,12.65
2022-10-16T06:47:00.576Z,12.66
2022-10-16T06:51:54.743Z,12.66
2022-10-16T06:56:45.124Z,12.65
2022-10-16T07:01:37.969Z,12.66
2022-10-16T07:06:29.934Z,12.68
2022-10-16T07:11:21.539Z,12.62
2022-10-16T07:16:14.350Z,12.61
2022-10-16T07:21:12.271Z,12.58
2022-10-16T07:26:02.178Z,12.53
2022-10-16T07:30:52.324Z,12.51
2022-10-16T07:35:42.213Z,12.57
2022-10-16T07:40:34.790Z,12.47
2022-10-16T07:45:24.379Z,12.64
2022-10-16T07:50:14.128Z,12.70
2022-10-16T07:55:05.476Z,12.82
2022-10-16T07:59:58.099Z,12.82
2022-10-16T08:04:51.594Z,12.97
2022-10-16T08:09:41.626Z,13.14
2022-10-16T08:14:31.805Z,13.27
2022-10-16T08:19:24.151Z,13.34
2022-10-16T08:24:13.541Z,13.44
2022-10-16T08:29:04.500Z,13.46
2022-10-16T08:33:54.174Z,13.54
2022-10-16T08:38:46.810Z,13.61
2022-10-16T08:43:54.476Z,13.70
2022-10-16T08:48:49.692Z,13.80
2022-10-16T08:53:50.293Z,13.86
2022-10-16T08:58:40.029Z,13.97
2022-10-16T09:03:45.941Z,14.12
2022-10-16T09:08:50.466Z,14.28
2022-10-16T09:13:51.807Z,14.45
2022-10-16T09:18:50.584Z,14.62
2022-10-16T09:23:41.574Z,14.78
2022-10-16T09:28:35.194Z,14.94
2022-10-16T09:33:35.126Z,15.09
2022-10-16T09:38:31.556Z,15.32
2022-10-16T09:43:25.695Z,15.55
2022-10-16T09:48:16.201Z,15.86
2022-10-16T09:53:15.294Z,16.16
2022-10-16T09:58:05.486Z,16.45
2022-10-16T10:02:56.841Z,16.67
2022-10-16T10:07:47.861Z,16.89
2022-10-16T10:12:42.225Z,17.11
2022-10-16T10:17:33.275Z,17.29
2022-10-16T10:22:27.213Z,17.56
2022-10-16T10:27:21.962Z,17.67
2022-10-16T10:32:21.965Z,17.63
2022-10-16T10:37:29.706Z,17.77
2022-10-16T10:42:30.532Z,17.86
2022-10-16T10:47:35.074Z,18.05
2022-10-16T10:52:45.601Z,18.07
2022-10-16T10:57:40.337Z,18.01
2022-10-16T11:02:37.729Z,17.86
2022-10-16T11:07:30.175Z,17.73
2022-10-16T11:12:23.515Z,17.67
2022-10-16T11:17:16.436Z,17.67
2022-10-16T11:22:16.346Z,17.78
2022-10-16T11:27:08.755Z,17.92
2022-10-16T11:32:01.735Z,17.96
2022-10-16T11:36:55.998Z,18.00
2022-10-16T11:41:53.472Z,17.86
2022-10-16T11:46:58.982Z,17.90
2022-10-16T11:52:00.907Z,17.97
2022-10-16T11:56:57.794Z,18.10
2022-10-16T12:01:51.093Z,18.19
2022-10-16T12:06:47.933Z,18.33
2022-10-16T12:11:41.790Z,18.45
2022-10-16T12:16:34.959Z,18.39
2022-10-16T12:21:34.290Z,18.34
2022-10-16T12:26:31.105Z,18.15
2022-10-16T12:31:23.322Z,18.13
2022-10-16T12:36:20.983Z,18.19
2022-10-16T12:41:15.447Z,18.35
2022-10-16T12:46:07.151Z,18.55
2022-10-16T12:50:57.846Z,18.69
2022-10-16T12:55:56.395Z,18.77
2022-10-16T13:00:49.048Z,18.77
2022-10-16T13:05:48.544Z,18.72
2022-10-16T13:10:41.869Z,18.68
2022-10-16T13:15:41.786Z,18.61
2022-10-16T13:20:36.734Z,18.57
2022-10-16T13:25:32.547Z,18.55
2022-10-16T13:30:28.126Z,18.52
2022-10-16T13:35:31.208Z,18.45
2022-10-16T13:40:25.662Z,18.39
2022-10-16T13:45:21.854Z,18.31
2022-10-16T13:50:16.108Z,18.23
2022-10-16T13:55:14.800Z,18.16
2022-10-16T14:00:05.046Z,18.13
2022-10-16T14:04:55.912Z,18.10
2022-10-16T14:09:48.420Z,18.09
2022-10-16T14:14:57.747Z,18.11
2022-10-16T14:19:54.742Z,18.13
2022-10-16T14:24:49.033Z,18.09
2022-10-16T14:29:42.356Z,18.05
2022-10-16T14:34:34.672Z,18.05
2022-10-16T14:39:27.775Z,18.03
2022-10-16T14:44:20.002Z,18.02
2022-10-16T14:49:21.610Z,18.02
2022-10-16T14:54:14.047Z,18.00
2022-10-16T14:59:13.750Z,17.96
2022-10-16T15:04:03.578Z,17.90
2022-10-16T15:08:55.528Z,17.91
2022-10-16T15:13:45.012Z,17.91
2022-10-16T15:18:36.138Z,17.84
2022-10-16T15:28:20.798Z,17.64
2022-10-16T15:33:15.719Z,17.54
2022-10-16T15:38:05.337Z,17.41
2022-10-16T15:42:54.888Z,17.30
2022-10-16T15:47:47.008Z,17.22
2022-10-16T15:52:36.396Z,17.15
2022-10-16T15:57:26.665Z,17.13
2022-10-16T16:02:16.055Z,17.09
2022-10-16T16:07:08.330Z,17.01
2022-10-16T16:11:59.126Z,16.97
2022-10-16T16:16:48.584Z,16.92
2022-10-16T16:21:38.044Z,16.86
2022-10-16T16:26:33.543Z,16.82
2022-10-16T16:31:23.201Z,16.76
2022-10-16T16:36:15.699Z,16.70
2022-10-16T16:41:14.219Z,16.62
2022-10-16T16:46:06.168Z,16.56
2022-10-16T16:50:55.541Z,16.47
2022-10-16T16:55:44.956Z,16.40
2022-10-16T17:00:34.726Z,16.35
2022-10-16T17:05:27.103Z,16.34
2022-10-16T17:10:16.461Z,16.34
2022-10-16T17:15:07.183Z,16.32
2022-10-16T17:19:56.856Z,16.27
2022-10-16T17:24:52.222Z,16.21
2022-10-16T17:29:42.060Z,16.17
2022-10-16T17:34:32.291Z,16.12
2022-10-16T17:39:23.520Z,16.06
2022-10-16T17:44:20.256Z,16.00
2022-10-16T17:49:09.727Z,15.99
2022-10-16T17:54:00.892Z,16.01
2022-10-16T17:58:52.026Z,16.00
2022-10-16T18:03:44.198Z,15.99
2022-10-16T18:08:36.632Z,15.99
2022-10-16T18:13:26.377Z,15.95
2022-10-16T18:18:15.967Z,15.94
2022-10-16T18:23:08.119Z,15.92
2022-10-16T18:27:57.647Z,15.91
2022-10-16T18:32:47.096Z,15.88
2022-10-16T18:37:38.299Z,15.85
2022-10-16T18:42:30.355Z,15.82
2022-10-16T18:47:20.044Z,15.80
2022-10-16T18:52:09.727Z,15.77
2022-10-16T18:56:59.389Z,15.75
2022-10-16T19:01:52.756Z,15.74
2022-10-16T19:06:43.491Z,15.69
2022-10-16T19:11:36.803Z,15.67
2022-10-16T19:16:31.448Z,15.66
2022-10-16T19:21:24.517Z,15.66
2022-10-16T19:26:15.341Z,15.63
2022-10-16T19:31:05.386Z,15.60
2022-10-16T19:35:54.791Z,15.54
2022-10-16T19:40:47.008Z,15.52
2022-10-16T19:45:36.793Z,15.50
2022-10-16T19:50:26.710Z,15.44
2022-10-16T19:55:17.724Z,15.37
2022-10-16T20:00:11.281Z,15.34
2022-10-16T20:05:00.752Z,15.29
2022-10-16T20:09:50.188Z,15.27
2022-10-16T20:14:39.910Z,15.26
2022-10-16T20:19:32.055Z,15.24
2022-10-16T20:24:21.625Z,15.22
2022-10-16T20:29:11.180Z,15.21
2022-10-16T20:34:01.666Z,15.21
2022-10-16T20:38:54.896Z,15.22
2022-10-16T20:43:45.619Z,15.22
2022-10-16T20:48:35.057Z,15.21
2022-10-16T20:53:24.710Z,15.21
2022-10-16T20:58:17.681Z,15.19
2022-10-16T21:03:08.139Z,15.19
2022-10-16T21:07:58.000Z,15.18
2022-10-16T21:12:47.538Z,15.14
2022-10-16T21:17:39.555Z,15.15
2022-10-16T21:22:31.425Z,15.13
2022-10-16T21:27:20.789Z,15.11
2022-10-16T21:32:10.252Z,15.11
2022-10-16T21:37:02.466Z,15.10
2022-10-16T21:41:52.802Z,15.09
2022-10-16T21:46:44.036Z,15.10
2022-10-16T21:51:34.282Z,15.07
2022-10-16T21:56:26.328Z,15.03
2022-10-16T22:01:16.686Z,15.00
2022-10-16T22:06:06.928Z,14.96
2022-10-16T22:10:56.362Z,14.92
2022-10-16T22:15:56.040Z,14.91
2022-10-16T22:20:47.632Z,14.90
2022-10-16T22:25:37.052Z,14.87
2022-10-16T22:30:26.493Z,14.83
2022-10-16T22:35:18.538Z,14.78
2022-10-16T22:40:08.659Z,14.75
2022-10-16T22:44:58.001Z,14.73
2022-10-16T22:49:47.402Z,14.70
2022-10-16T22:54:40.097Z,14.65
2022-10-16T22:59:29.549Z,14.61
2022-10-16T23:04:18.905Z,14.59
2022-10-16T23:09:08.392Z,14.56
2022-10-16T23:14:00.368Z,14.55
2022-10-16T23:18:49.968Z,14.53
2022-10-16T23:23:40.012Z,14.51
2022-10-16T23:28:29.399Z,14.49
2022-10-16T23:33:21.439Z,14.49
2022-10-16T23:38:10.855Z,14.44
2022-10-16T23:43:00.269Z,14.43
2022-10-16T23:47:49.689Z,14.41
2022-10-16T23:52:41.732Z,14.38
2022-10-16T23:57:31.338Z,14.34
